Time;durP1;ratioP1;P1;durP2;ratioP2;P2;SDS_P1;SDS_P2;PMS_P1;PMS_P2;Temp;Humidity;BMP_temperature;BMP_pressure;BME280_temperature;BME280_humidity;BME280_pressure;Samples;Min_cycle;Max_cycle;Signal;HPM_P1;HPM_P2
2021/06/02 00:00:31;;;;;;;4.13;3.63;;;;;;;14.11;74.11;100051.47;627581;225;24925;-74
2021/06/02 00:02:59;;;;;;;4.40;3.50;;;;;;;14.14;73.70;100045.08;647421;219;24835;-74
2021/06/02 00:05:27;;;;;;;6.97;3.80;;;;;;;14.15;73.25;100044.91;625511;225;24916;-74
2021/06/02 00:07:55;;;;;;;5.40;3.53;;;;;;;13.93;74.21;100048.28;625001;225;24900;-74
2021/06/02 00:10:23;;;;;;;5.33;3.23;;;;;;;13.94;74.40;100051.23;636214;225;25001;-74
2021/06/02 00:12:51;;;;;;;3.83;3.27;;;;;;;14.10;74.14;100047.73;635611;224;24917;-74
2021/06/02 00:15:19;;;;;;;3.90;3.43;;;;;;;14.08;73.95;100037.44;626962;225;24934;-74
2021/06/02 00:17:47;;;;;;;3.97;3.60;;;;;;;13.98;73.97;100041.25;650548;220;24869;-74
2021/06/02 00:20:15;;;;;;;6.50;3.73;;;;;;;13.82;74.37;100036.42;636491;221;23950;-74
2021/06/02 00:22:43;;;;;;;7.13;3.70;;;;;;;13.66;75.26;100045.15;637846;224;24915;-74
2021/06/02 00:25:12;;;;;;;5.23;3.70;;;;;;;13.56;75.22;100043.71;634063;225;24908;-74
2021/06/02 00:27:40;;;;;;;4.77;4.07;;;;;;;13.46;76.00;100041.28;639261;224;24954;-74
2021/06/02 00:30:10;;;;;;;4.97;4.00;;;;;;;13.36;77.44;100040.64;638201;225;23924;-74
2021/06/02 00:32:38;;;;;;;7.50;4.00;;;;;;;13.30;77.02;100042.14;644870;221;24857;-74
2021/06/02 00:35:07;;;;;;;5.20;4.00;;;;;;;13.57;76.92;100037.50;624421;225;24920;-74
2021/06/02 00:37:35;;;;;;;5.10;3.73;;;;;;;13.75;76.13;100036.77;651589;219;24894;-74
2021/06/02 00:40:03;;;;;;;5.30;4.03;;;;;;;13.76;76.27;100034.47;652463;220;24846;-74
2021/06/02 00:42:31;;;;;;;4.10;3.80;;;;;;;13.82;76.04;100036.91;635193;225;28130;-74
2021/06/02 00:44:59;;;;;;;4.03;3.63;;;;;;;13.71;75.49;100041.20;632884;225;24900;-74
2021/06/02 00:47:27;;;;;;;3.77;3.20;;;;;;;13.40;76.50;100044.58;634490;225;24893;-74
2021/06/02 00:49:55;;;;;;;8.53;4.20;;;;;;;12.91;78.95;100048.52;649443;221;24906;-74
2021/06/02 00:52:23;;;;;;;5.53;4.00;;;;;;;13.06;77.82;100046.87;626594;225;26022;-74
2021/06/02 00:54:52;;;;;;;4.20;3.83;;;;;;;13.04;78.58;100050.64;637074;225;24884;-74
2021/06/02 00:57:19;;;;;;;3.63;3.33;;;;;;;13.01;77.78;100043.95;638044;225;24923;-74
2021/06/02 00:59:47;;;;;;;7.30;4.43;;;;;;;12.76;78.99;100046.25;631056;225;24911;-76
2021/06/02 01:02:15;;;;;;;8.50;4.20;;;;;;;12.77;78.78;100049.18;635109;223;24967;-74
2021/06/02 01:04:43;;;;;;;5.60;4.73;;;;;;;12.89;79.29;100047.88;640373;224;29250;-74
2021/06/02 01:07:11;;;;;;;5.07;4.13;;;;;;;12.86;79.69;100049.52;638944;224;23955;-74
2021/06/02 01:09:44;;;;;;;5.87;4.30;;;;;;;12.84;79.87;100046.26;655690;219;27055;-74
2021/06/02 01:12:09;;;;;;;5.62;3.95;;;;;;;13.23;78.18;100037.73;648522;217;43514;-74
2021/06/02 01:14:37;;;;;;;6.60;4.40;;;;;;;13.50;77.40;100037.34;624528;225;37574;-74
2021/06/02 01:17:05;;;;;;;4.70;4.00;;;;;;;13.10;78.38;100035.63;629316;225;23939;-74
2021/06/02 01:19:33;;;;;;;5.63;4.30;;;;;;;12.95;78.03;100044.63;652159;219;24857;-74
2021/06/02 01:22:01;;;;;;;4.33;3.93;;;;;;;12.75;79.93;100048.53;636675;225;24906;-74
2021/06/02 01:24:29;;;;;;;5.00;4.40;;;;;;;12.60;79.77;100047.06;637445;225;28123;-74
2021/06/02 01:26:57;;;;;;;4.80;4.20;;;;;;;12.58;80.31;100050.33;639213;224;24929;-74
2021/06/02 01:32:06;;;;;;;4.43;4.00;;;;;;;12.55;80.03;100046.74;651481;217;30989;-76
2021/06/02 01:34:40;;;;;;;4.60;4.07;;;;;;;12.60;79.48;100047.06;636752;221;23912;-74
2021/06/02 01:37:16;;;;;;;5.00;4.10;;;;;;;12.47;80.79;100050.14;639624;222;24898;-73
2021/06/02 01:39:59;;;;;;;6.42;4.25;;;;;;;12.86;78.58;100039.08;640234;221;32757;-76
2021/06/02 01:42:29;;;;;;;4.70;4.30;;;;;;;12.40;80.57;100041.34;632006;225;23200;-76
2021/06/02 01:45:16;;;;;;;4.87;4.37;;;;;;;12.30;81.12;100040.67;637990;224;24902;-76
2021/06/02 01:47:50;;;;;;;5.10;4.27;;;;;;;12.34;80.14;100039.86;628632;225;23954;-76
2021/06/02 01:50:26;;;;;;;5.10;4.13;;;;;;;12.46;80.28;100048.52;649311;221;24876;-73
2021/06/02 01:53:19;;;;;;;5.13;3.97;;;;;;;12.54;79.95;100039.08;646009;221;23934;-73
2021/06/02 01:56:26;;;;;;;4.40;3.80;;;;;;;12.73;79.21;100039.56;635200;225;23928;-73
2021/06/02 01:59:16;;;;;;;5.20;4.27;;;;;;;12.66;79.56;100038.57;631979;225;28112;-73
2021/06/02 02:02:01;;;;;;;4.50;4.10;;;;;;;12.91;78.12;100032.86;646345;217;32408;-75
2021/06/02 02:04:41;;;;;;;5.57;3.90;;;;;;;12.85;78.79;100032.23;651865;220;23753;-74
2021/06/02 02:07:22;;;;;;;4.30;3.40;;;;;;;12.86;78.31;100029.94;650852;220;24850;-74
2021/06/02 02:10:04;;;;;;;4.90;4.27;;;;;;;12.84;79.07;100031.09;651381;217;25130;-74
2021/06/02 02:12:33;;;;;;;5.90;4.25;;;;;;;13.03;77.56;100030.23;647709;217;33031;-73
2021/06/02 02:15:07;;;;;;;7.90;3.83;;;;;;;12.80;78.66;100037.10;654605;217;23775;-74
2021/06/02 02:17:49;;;;;;;6.10;4.03;;;;;;;12.96;78.23;100034.51;644219;217;32709;-74
2021/06/02 02:20:19;;;;;;;6.50;4.63;;;;;;;12.56;79.27;100044.46;640990;221;23776;-74
2021/06/02 02:22:52;;;;;;;4.90;4.40;;;;;;;12.48;79.93;100045.25;641741;221;24902;-74
2021/06/02 02:25:22;;;;;;;4.23;3.93;;;;;;;12.23;80.78;100050.09;644110;221;24857;-74
2021/06/02 02:27:51;;;;;;;7.97;4.13;;;;;;;12.00;81.85;100056.41;643950;220;24875;-74
2021/06/02 02:30:19;;;;;;;5.47;4.20;;;;;;;11.97;82.71;100056.73;641030;219;24888;-74
2021/06/02 02:32:56;;;;;;;7.67;4.07;;;;;;;11.90;82.02;100057.02;657645;218;24810;-74
2021/06/02 02:35:40;;;;;;;4.70;4.30;;;;;;;11.75;82.68;100053.34;644111;221;25130;-74
2021/06/02 02:38:09;;;;;;;6.60;4.87;;;;;;;11.85;82.76;100052.77;637049;221;33478;-74
2021/06/02 02:40:44;;;;;;;4.50;4.10;;;;;;;11.70;83.72;100059.03;645410;222;23812;-74
2021/06/02 02:43:12;;;;;;;13.23;4.57;;;;;;;11.61;83.98;100053.45;642145;220;23904;-74
2021/06/02 02:45:42;;;;;;;4.40;4.00;;;;;;;11.44;84.48;100058.25;647502;221;24820;-74
2021/06/02 02:48:19;;;;;;;5.13;4.47;;;;;;;11.42;85.02;100056.28;646779;221;24914;-74
2021/06/02 02:50:47;;;;;;;5.23;4.73;;;;;;;11.30;85.63;100056.54;640780;221;27037;-74
2021/06/02 02:53:15;;;;;;;6.90;5.60;;;;;;;11.20;85.96;100059.72;639616;221;24115;-74
2021/06/02 02:55:43;;;;;;;5.90;4.53;;;;;;;11.08;86.30;100064.02;636707;222;23950;-74
2021/06/02 02:58:14;;;;;;;5.97;4.97;;;;;;;11.15;86.61;100063.28;647703;220;24901;-74
2021/06/02 03:00:43;;;;;;;4.60;4.20;;;;;;;11.15;86.35;100065.88;637524;221;24883;-74
2021/06/02 03:03:13;;;;;;;5.77;4.40;;;;;;;11.27;85.17;100060.76;654688;217;24849;-74
2021/06/02 03:05:45;;;;;;;7.50;4.93;;;;;;;11.37;85.30;100062.42;637278;222;24843;-74
2021/06/02 03:08:13;;;;;;;5.47;4.70;;;;;;;11.49;84.96;100058.10;641074;219;32574;-74
2021/06/02 03:10:43;;;;;;;10.43;5.20;;;;;;;11.62;83.85;100060.28;633382;222;34545;-74
2021/06/02 03:13:13;;;;;;;5.73;5.17;;;;;;;11.47;85.46;100070.95;640916;221;24875;-74
2021/06/02 03:15:43;;;;;;;7.60;4.80;;;;;;;11.49;85.18;100072.91;637862;221;24870;-74
2021/06/02 03:18:17;;;;;;;5.63;4.87;;;;;;;11.37;85.67;100076.74;647808;221;27019;-74
2021/06/02 03:20:47;;;;;;;5.80;5.13;;;;;;;11.29;85.64;100079.64;646281;220;24861;-74
2021/06/02 03:23:23;;;;;;;5.17;4.67;;;;;;;11.26;86.14;100083.86;655633;217;27033;-74
2021/06/02 03:25:53;;;;;;;7.97;4.63;;;;;;;11.23;86.13;100086.74;647487;218;25952;-74
2021/06/02 03:28:31;;;;;;;5.33;4.57;;;;;;;11.28;85.73;100082.40;646212;221;23909;-74
2021/06/02 03:31:01;;;;;;;6.83;5.00;;;;;;;11.33;86.12;100088.44;644321;220;24864;-74
2021/06/02 03:33:34;;;;;;;5.80;4.20;;;;;;;11.21;86.56;100089.98;644926;221;24870;-74
2021/06/02 03:36:06;;;;;;;5.33;4.70;;;;;;;11.17;86.76;100093.05;650440;220;24871;-74
2021/06/02 03:38:39;;;;;;;6.03;4.60;;;;;;;11.15;86.20;100088.00;645690;221;23883;-74
2021/06/02 03:41:08;;;;;;;5.87;5.27;;;;;;;11.35;85.51;100086.02;643721;221;24907;-74
2021/06/02 03:43:36;;;;;;;5.37;4.87;;;;;;;11.58;85.22;100083.72;628318;225;24922;-74
2021/06/02 03:46:09;;;;;;;5.00;4.50;;;;;;;11.64;84.66;100083.08;641137;221;24883;-74
2021/06/02 03:48:41;;;;;;;5.10;4.60;;;;;;;11.65;83.72;100084.72;646004;221;24871;-74
2021/06/02 03:51:18;;;;;;;5.77;4.57;;;;;;;11.81;83.29;100089.22;648157;218;24894;-74
2021/06/02 03:53:53;;;;;;;6.00;4.63;;;;;;;11.94;83.52;100088.30;656789;217;24818;-74
2021/06/02 03:56:24;;;;;;;5.03;4.53;;;;;;;12.27;81.50;100087.94;634362;221;24844;-74
2021/06/02 03:58:54;;;;;;;5.20;3.80;;;;;;;12.46;81.31;100084.22;653692;218;28052;-74
2021/06/02 04:01:24;;;;;;;8.03;4.90;;;;;;;12.54;81.06;100080.33;645809;222;24870;-74
2021/06/02 04:04:01;;;;;;;4.57;4.17;;;;;;;12.57;80.79;100080.49;646889;221;24853;-74
2021/06/02 04:06:31;;;;;;;10.70;4.70;;;;;;;12.59;80.97;100087.66;635878;222;23911;-73
2021/06/02 04:08:59;;;;;;;7.10;4.57;;;;;;;12.64;81.07;100090.11;650587;217;24854;-73
2021/06/02 04:11:33;;;;;;;6.03;4.90;;;;;;;12.60;80.54;100090.11;639711;222;24882;-73
2021/06/02 04:14:01;;;;;;;5.73;4.60;;;;;;;12.75;80.05;100092.90;636939;222;24921;-73
2021/06/02 04:16:31;;;;;;;5.97;4.50;;;;;;;13.15;79.27;100090.78;649433;217;32461;-72
2021/06/02 04:19:00;;;;;;;5.20;4.60;;;;;;;12.98;79.09;100088.67;641341;222;24887;-72
2021/06/02 04:21:28;;;;;;;5.20;4.20;;;;;;;13.10;78.86;100093.57;652133;217;24851;-72
2021/06/02 04:23:56;;;;;;;7.28;4.40;;;;;;;13.37;77.90;100087.98;641058;220;32892;-75
2021/06/02 04:26:24;;;;;;;5.10;4.60;;;;;;;13.32;78.76;100093.72;643787;220;22799;-75
2021/06/02 04:28:52;;;;;;;5.80;3.93;;;;;;;13.56;77.72;100087.64;660852;217;24940;-75
2021/06/02 04:31:20;;;;;;;5.37;4.40;;;;;;;13.88;76.55;100085.89;645602;220;32935;-74
2021/06/02 04:33:48;;;;;;;4.85;4.15;;;;;;;14.04;75.98;100088.92;640661;221;32596;-75
2021/06/02 04:36:16;;;;;;;6.10;4.20;;;;;;;14.03;76.23;100101.19;638897;221;24274;-75
2021/06/02 04:38:44;;;;;;;5.10;4.07;;;;;;;14.23;75.28;100091.14;639604;221;23920;-75
2021/06/02 04:41:12;;;;;;;8.50;4.70;;;;;;;14.65;73.96;100089.44;635068;221;32701;-75
2021/06/02 04:43:39;;;;;;;7.00;4.50;;;;;;;14.57;73.95;100086.87;642644;218;22781;-75
2021/06/02 04:46:07;;;;;;;7.63;4.57;;;;;;;14.37;74.82;100093.02;647904;221;23836;-75
2021/06/02 04:48:35;;;;;;;5.17;3.60;;;;;;;14.37;74.70;100085.67;638904;221;23893;-75
2021/06/02 04:51:26;;;;;;;5.50;3.80;;;;;;;14.67;74.14;100087.95;644791;221;24858;-75
2021/06/02 04:54:28;;;;;;;4.83;3.63;;;;;;;14.68;73.40;100081.23;639849;221;23890;-75
2021/06/02 04:57:06;;;;;;;5.50;4.03;;;;;;;14.58;73.25;100084.56;643521;220;24193;-74
2021/06/02 04:59:44;;;;;;;4.40;4.00;;;;;;;14.65;74.61;100089.94;644779;221;24898;-75
2021/06/02 05:02:36;;;;;;;5.73;3.73;;;;;;;14.89;73.03;100099.39;649845;218;26067;-75
2021/06/02 05:05:17;;;;;;;7.30;3.87;;;;;;;15.29;73.00;100099.05;635324;222;23887;-75
2021/06/02 05:08:14;;;;;;;4.50;3.70;;;;;;;15.65;72.04;100099.20;636548;222;23911;-75
2021/06/02 05:11:04;;;;;;;4.67;3.93;;;;;;;15.65;71.00;100099.70;637351;222;23888;-75
2021/06/02 05:13:58;;;;;;;8.23;4.13;;;;;;;15.82;70.56;100100.33;651597;218;23871;-75
2021/06/02 05:16:59;;;;;;;5.30;3.60;;;;;;;15.77;71.92;100101.38;639906;222;24906;-75
2021/06/02 05:20:00;;;;;;;6.00;4.23;;;;;;;16.07;70.16;100108.23;646099;222;23876;-75
2021/06/02 05:22:40;;;;;;;4.87;3.47;;;;;;;16.48;67.68;100101.94;644692;222;23897;-75
2021/06/02 05:25:28;;;;;;;4.83;4.33;;;;;;;16.45;68.23;100103.59;653365;218;24955;-75
2021/06/02 05:28:11;;;;;;;7.27;4.00;;;;;;;16.60;68.12;100108.30;638070;221;23841;-75
2021/06/02 05:31:02;;;;;;;8.13;3.53;;;;;;;16.50;68.12;100110.94;636730;221;23922;-75
2021/06/02 05:34:19;;;;;;;4.20;3.80;;;;;;;16.91;66.68;100122.48;637847;221;32977;-75
2021/06/02 05:37:09;;;;;;;4.10;3.70;;;;;;;17.25;65.32;100117.50;644061;220;32759;-75
2021/06/02 05:40:03;;;;;;;4.72;3.50;;;;;;;17.67;63.84;100120.02;649553;217;32543;-75
2021/06/02 05:42:39;;;;;;;6.07;3.67;;;;;;;17.10;66.14;100113.14;643756;221;23770;-75
2021/06/02 05:45:18;;;;;;;4.60;3.77;;;;;;;16.73;67.92;100123.41;638501;222;23877;-75
2021/06/02 05:47:57;;;;;;;6.17;4.07;;;;;;;16.64;67.60;100125.83;647352;217;24859;-75
2021/06/02 05:50:49;;;;;;;6.93;4.07;;;;;;;16.75;67.93;100127.16;641864;221;23878;-75
2021/06/02 05:53:29;;;;;;;5.40;3.37;;;;;;;17.11;66.14;100121.33;641579;221;25143;-77
2021/06/02 05:56:11;;;;;;;5.70;3.80;;;;;;;17.00;66.59;100120.52;641391;221;23975;-75
2021/06/02 05:58:49;;;;;;;5.47;4.00;;;;;;;17.28;66.89;100122.36;652640;217;23936;-75
2021/06/02 06:01:57;;;;;;;4.37;3.30;;;;;;;16.98;65.77;100116.47;640696;221;24868;-74
2021/06/02 06:05:05;;;;;;;4.27;3.60;;;;;;;17.47;66.26;100126.97;650799;216;24526;-76
2021/06/02 06:07:58;;;;;;;4.27;3.63;;;;;;;17.40;66.56;100117.70;636003;225;24908;-73
2021/06/02 06:11:30;;;;;;;3.70;3.40;;;;;;;17.38;69.33;100127.61;625980;225;24938;-73
2021/06/02 06:14:05;;;;;;;5.50;3.80;;;;;;;17.32;69.09;100123.62;624816;229;28148;-73
2021/06/02 06:16:44;;;;;;;11.00;3.57;;;;;;;17.51;67.98;100121.13;624755;229;23956;-73
2021/06/02 06:19:22;;;;;;;6.07;3.90;;;;;;;17.95;66.07;100117.36;624678;229;24081;-73
2021/06/02 06:22:29;;;;;;;5.60;3.63;;;;;;;18.01;64.93;100113.12;625475;226;23928;-73
2021/06/02 06:24:58;;;;;;;7.00;3.60;;;;;;;18.23;64.16;100109.38;633160;225;23925;-73
2021/06/02 06:27:27;;;;;;;4.83;3.40;;;;;;;18.04;63.24;100094.33;617802;229;23966;-74
2021/06/02 06:29:57;;;;;;;6.87;3.50;;;;;;;18.45;61.29;100093.45;635899;225;23951;-73
2021/06/02 06:32:25;;;;;;;5.13;4.10;;;;;;;18.73;62.29;100093.32;628456;225;23848;-74
2021/06/02 06:34:54;;;;;;;5.77;4.10;;;;;;;18.95;61.65;100090.28;630430;225;23914;-74
2021/06/02 06:37:22;;;;;;;8.30;3.90;;;;;;;19.03;61.47;100080.56;626311;226;23810;-74
2021/06/02 06:39:50;;;;;;;5.80;3.57;;;;;;;19.02;61.79;100089.48;630059;225;28161;-74
2021/06/02 06:42:20;;;;;;;5.37;3.70;;;;;;;18.68;62.11;100086.00;630370;225;23964;-73
2021/06/02 06:44:48;;;;;;;4.47;3.37;;;;;;;18.61;60.42;100085.97;625724;226;23907;-74
2021/06/02 06:47:16;;;;;;;6.90;3.90;;;;;;;18.71;62.15;100080.83;629793;226;23897;-74
2021/06/02 06:49:44;;;;;;;6.00;3.60;;;;;;;19.04;59.88;100086.13;628260;226;24915;-73
2021/06/02 06:52:11;;;;;;;7.80;3.10;;;;;;;19.71;57.90;100072.66;625930;226;23922;-74
2021/06/02 06:54:39;;;;;;;6.10;3.60;;;;;;;19.88;58.43;100073.00;632140;225;24864;-74
2021/06/02 06:57:07;;;;;;;6.40;3.20;;;;;;;19.89;57.64;100073.81;628888;225;23919;-74
2021/06/02 06:59:35;;;;;;;6.57;3.13;;;;;;;19.86;57.36;100063.98;625963;226;23930;-74
2021/06/02 07:02:04;;;;;;;4.10;2.90;;;;;;;19.79;58.56;100067.64;630502;225;23854;-74
2021/06/02 07:04:32;;;;;;;4.40;3.20;;;;;;;20.25;56.85;100074.03;625541;225;32848;-76
2021/06/02 07:07:00;;;;;;;4.27;3.03;;;;;;;20.33;57.63;100077.75;625878;226;22795;-76
2021/06/02 07:09:29;;;;;;;7.08;3.10;;;;;;;21.25;57.61;100071.00;620194;225;32725;-76
2021/06/02 07:11:57;;;;;;;5.63;3.00;;;;;;;21.20;56.26;100076.11;631497;225;22811;-76
2021/06/02 07:14:25;;;;;;;6.03;3.17;;;;;;;21.31;55.29;100074.11;626931;225;23918;-76
2021/06/02 07:16:53;;;;;;;5.87;2.90;;;;;;;21.34;55.19;100072.34;631086;225;23921;-76
2021/06/02 07:19:22;;;;;;;4.57;2.97;;;;;;;20.02;57.38;100073.25;631135;225;24958;-75
2021/06/02 07:21:49;;;;;;;4.53;3.90;;;;;;;20.55;57.17;100081.40;626070;225;28121;-76
2021/06/02 07:24:18;;;;;;;4.40;2.60;;;;;;;20.99;56.97;100079.16;618893;229;23988;-76
2021/06/02 07:26:46;;;;;;;5.85;2.90;;;;;;;21.12;55.35;100077.73;616450;229;32963;-76
2021/06/02 07:29:14;;;;;;;2.90;2.20;;;;;;;21.22;57.63;100079.34;636909;225;22777;-76
2021/06/02 07:31:42;;;;;;;3.60;2.57;;;;;;;21.25;55.11;100068.35;618882;226;27065;-76
2021/06/02 07:34:10;;;;;;;6.30;2.90;;;;;;;21.13;55.32;100074.57;636038;225;23974;-76
2021/06/02 07:36:38;;;;;;;4.67;2.70;;;;;;;21.32;56.73;100079.70;637054;225;24000;-76
2021/06/02 07:39:06;;;;;;;5.40;2.80;;;;;;;21.09;55.71;100087.39;637764;225;24882;-75
2021/06/02 07:41:34;;;;;;;6.53;3.00;;;;;;;21.20;55.65;100076.11;637689;225;27090;-74
2021/06/02 07:44:02;;;;;;;10.83;3.10;;;;;;;21.80;55.66;100082.94;637953;225;23885;-74
2021/06/02 07:46:32;;;;;;;3.33;2.90;;;;;;;22.26;55.28;100080.27;637404;225;23940;-74
2021/06/02 07:48:58;;;;;;;3.47;2.60;;;;;;;22.63;54.64;100076.16;636405;225;23919;-74
2021/06/02 07:51:26;;;;;;;6.13;2.80;;;;;;;22.79;54.55;100084.25;636817;225;23876;-75
2021/06/02 07:53:54;;;;;;;6.03;2.60;;;;;;;22.63;52.46;100072.17;634500;225;23976;-76
2021/06/02 07:56:22;;;;;;;4.13;2.60;;;;;;;22.50;51.39;100062.58;636754;225;23904;-75
2021/06/02 07:58:50;;;;;;;3.30;2.30;;;;;;;22.39;52.96;100065.52;637247;225;24903;-76
2021/06/02 08:01:18;;;;;;;4.60;2.50;;;;;;;22.75;52.85;100063.73;638522;220;23910;-77
2021/06/02 08:03:46;;;;;;;4.40;3.07;;;;;;;22.92;52.05;100073.17;631902;225;23901;-76
2021/06/02 08:06:13;;;;;;;3.47;2.57;;;;;;;23.51;53.67;100084.09;636286;225;23896;-74
2021/06/02 08:08:41;;;;;;;3.97;2.43;;;;;;;24.02;51.42;100072.38;635655;225;23902;-74
2021/06/02 08:11:09;;;;;;;7.40;2.40;;;;;;;24.09;49.16;100065.89;636909;221;23920;-74
2021/06/02 08:13:37;;;;;;;4.70;2.57;;;;;;;23.86;50.22;100073.41;637169;225;23964;-74
2021/06/02 08:16:06;;;;;;;4.30;2.47;;;;;;;23.59;52.23;100071.80;620735;229;23995;-73
2021/06/02 08:18:33;;;;;;;3.63;2.63;;;;;;;23.11;53.20;100085.32;630180;225;23879;-73
2021/06/02 08:21:01;;;;;;;4.53;2.37;;;;;;;23.00;53.02;100090.90;633279;225;23938;-74
2021/06/02 08:23:29;;;;;;;5.63;2.90;;;;;;;23.08;52.36;100085.27;638746;225;28056;-74
2021/06/02 08:25:57;;;;;;;4.57;2.17;;;;;;;23.35;51.48;100084.77;637850;223;23902;-74
2021/06/02 08:28:25;;;;;;;3.73;2.40;;;;;;;23.00;50.17;100086.11;639051;224;23896;-73
2021/06/02 08:30:53;;;;;;;7.30;2.73;;;;;;;23.19;52.13;100088.13;619025;229;23875;-74
2021/06/02 08:33:21;;;;;;;5.63;2.60;;;;;;;23.25;51.42;100086.70;625749;228;26237;-75
2021/06/02 08:35:49;;;;;;;5.90;2.40;;;;;;;22.90;52.89;100093.30;633224;225;23870;-73
2021/06/02 08:38:17;;;;;;;3.30;2.40;;;;;;;23.57;53.01;100091.14;636732;225;24834;-73
2021/06/02 08:40:45;;;;;;;3.53;2.57;;;;;;;24.03;49.52;100089.41;635048;225;23957;-74
2021/06/02 08:43:13;;;;;;;3.00;2.50;;;;;;;23.95;49.62;100085.81;638560;225;23966;-74
2021/06/02 08:45:41;;;;;;;3.60;2.33;;;;;;;24.83;50.28;100083.14;636841;224;23875;-74
2021/06/02 08:48:09;;;;;;;3.83;2.20;;;;;;;24.67;50.76;100094.06;639268;224;23958;-75
2021/06/02 08:50:37;;;;;;;3.00;2.20;;;;;;;24.45;50.83;100091.28;638273;224;23952;-75
2021/06/02 08:53:05;;;;;;;4.43;2.73;;;;;;;24.32;50.42;100086.26;630446;227;23946;-73
2021/06/02 08:55:33;;;;;;;4.57;2.43;;;;;;;24.28;51.52;100085.91;628060;225;25950;-74
2021/06/02 08:58:01;;;;;;;4.60;2.10;;;;;;;24.56;51.32;100090.42;636245;225;24157;-73
2021/06/02 09:00:29;;;;;;;4.63;2.57;;;;;;;24.76;48.03;100087.28;617187;229;23874;-74
2021/06/02 09:02:57;;;;;;;3.97;2.07;;;;;;;24.63;49.79;100086.27;634140;225;23835;-74
2021/06/02 09:05:25;;;;;;;5.20;2.20;;;;;;;25.69;47.08;100085.77;638329;225;23963;-74
2021/06/02 09:07:53;;;;;;;5.10;2.20;;;;;;;26.01;45.86;100077.86;619032;228;23877;-74
2021/06/02 09:10:21;;;;;;;5.72;2.40;;;;;;;26.42;46.14;100073.51;618984;228;32841;-74
2021/06/02 09:12:53;;;;;;;2.80;2.20;;;;;;;26.73;43.96;100062.56;628035;228;25989;-74
2021/06/02 09:15:19;;;;;;;3.20;2.20;;;;;;;26.45;43.95;100063.66;627849;228;23988;-73
2021/06/02 09:17:50;;;;;;;3.83;2.20;;;;;;;27.61;42.66;100054.31;621794;228;32892;-74
2021/06/02 09:20:33;;;;;;;3.10;2.30;;;;;;;27.53;44.42;100058.02;627600;228;23941;-74
2021/06/02 09:23:01;;;;;;;4.90;1.80;;;;;;;27.27;46.32;100066.42;627446;228;24040;-74
2021/06/02 09:25:29;;;;;;;3.93;1.97;;;;;;;27.50;45.18;100070.03;639174;225;23894;-73
2021/06/02 09:27:57;;;;;;;2.40;1.97;;;;;;;27.30;44.02;100070.71;636213;225;23912;-74
2021/06/02 09:30:25;;;;;;;3.60;2.77;;;;;;;26.87;46.08;100077.08;635771;225;26084;-74
2021/06/02 09:32:53;;;;;;;5.30;2.20;;;;;;;25.51;47.24;100079.91;636286;225;26034;-73
2021/06/02 09:35:22;;;;;;;5.00;2.20;;;;;;;25.53;50.98;100083.12;628332;225;25936;-73
2021/06/02 09:37:52;;;;;;;3.33;1.90;;;;;;;26.39;46.53;100074.02;637474;222;23820;-74
2021/06/02 09:40:22;;;;;;;3.33;2.20;;;;;;;26.46;45.91;100060.73;622102;228;23986;-73
2021/06/02 09:42:51;;;;;;;6.10;2.37;;;;;;;26.60;48.87;100073.12;624223;228;23979;-74
2021/06/02 09:45:19;;;;;;;4.03;2.30;;;;;;;26.93;46.02;100065.39;635125;224;23972;-73
2021/06/02 09:47:47;;;;;;;5.97;2.50;;;;;;;26.57;47.28;100061.11;636030;225;23881;-74
2021/06/02 09:50:15;;;;;;;3.00;2.60;;;;;;;26.31;46.00;100065.90;632454;225;23950;-71
2021/06/02 09:52:45;;;;;;;4.93;2.20;;;;;;;26.77;46.34;100067.69;631436;225;23867;-71
2021/06/02 09:55:14;;;;;;;2.87;2.60;;;;;;;26.90;46.48;100064.58;628736;225;23850;-72
2021/06/02 09:57:42;;;;;;;6.87;2.60;;;;;;;26.69;46.69;100064.14;631299;225;23931;-72
2021/06/02 10:00:11;;;;;;;4.80;2.47;;;;;;;26.52;45.37;100061.60;633576;222;25064;-71
2021/06/02 10:02:39;;;;;;;2.13;1.93;;;;;;;26.77;47.10;100062.34;618880;230;23882;-72
2021/06/02 10:05:08;;;;;;;3.27;2.00;;;;;;;26.57;46.54;100072.30;624361;228;30549;-72
2021/06/02 10:07:42;;;;;;;4.50;2.50;;;;;;;26.89;43.91;100066.98;615582;229;25193;-71
2021/06/02 10:10:12;;;;;;;5.33;2.70;;;;;;;27.06;47.28;100066.31;633108;225;23961;-72
2021/06/02 10:12:40;;;;;;;4.10;2.10;;;;;;;27.05;45.88;100062.04;638341;225;23859;-73
2021/06/02 10:15:09;;;;;;;6.37;2.23;;;;;;;27.25;44.53;100068.55;637035;225;24053;-73
2021/06/02 10:17:37;;;;;;;4.43;2.03;;;;;;;26.77;43.04;100055.67;637954;225;24039;-72
2021/06/02 10:20:08;;;;;;;2.03;1.73;;;;;;;26.59;44.20;100054.98;638290;221;23829;-74
2021/06/02 10:22:36;;;;;;;4.20;1.93;;;;;;;26.97;45.24;100059.81;635232;225;23883;-74
2021/06/02 10:25:04;;;;;;;2.30;1.93;;;;;;;26.82;43.49;100062.38;638364;225;24924;-74
2021/06/02 10:27:32;;;;;;;3.47;2.00;;;;;;;27.15;44.02;100049.27;639087;225;23826;-74
2021/06/02 10:32:38;;;;;;;2.70;1.80;;;;;;;27.36;43.18;100060.34;648479;217;29191;-72
2021/06/02 10:35:07;;;;;;;2.73;1.87;;;;;;;27.14;41.02;100044.98;639085;224;30234;-72
2021/06/02 10:37:36;;;;;;;3.70;2.10;;;;;;;26.94;43.25;100045.64;652127;220;23763;-72
2021/06/02 10:40:04;;;;;;;2.67;2.23;;;;;;;26.96;42.72;100046.19;649365;220;23803;-72
2021/06/02 10:42:33;;;;;;;5.10;2.10;;;;;;;27.14;43.84;100054.33;619517;229;23879;-72
2021/06/02 10:45:02;;;;;;;4.93;2.13;;;;;;;27.41;42.83;100053.68;627452;226;23875;-74
2021/06/02 10:47:29;;;;;;;2.37;2.13;;;;;;;27.49;40.88;100041.70;634957;224;23856;-76
2021/06/02 10:49:57;;;;;;;4.87;2.00;;;;;;;27.29;42.65;100048.27;638620;225;24945;-76
2021/06/02 10:52:36;;;;;;;3.70;1.80;;;;;;;26.78;44.84;100050.61;636241;225;23883;-76
2021/06/02 10:55:30;;;;;;;2.90;2.07;;;;;;;27.18;44.88;100044.77;638323;225;23870;-76
2021/06/02 10:58:15;;;;;;;4.10;1.97;;;;;;;27.18;42.58;100044.23;629681;225;24136;-77
2021/06/02 11:00:43;;;;;;;4.33;1.53;;;;;;;27.17;41.85;100043.16;629906;225;24119;-77
2021/06/02 11:03:19;;;;;;;7.13;2.00;;;;;;;27.49;43.07;100033.16;630333;225;23833;-76
2021/06/02 11:05:47;;;;;;;2.30;1.50;;;;;;;27.62;40.05;100025.72;620883;230;23926;-77
2021/06/02 11:08:15;;;;;;;1.70;1.60;;;;;;;27.48;39.06;100016.85;620275;229;23910;-77
2021/06/02 11:10:43;;;;;;;2.10;2.00;;;;;;;27.50;39.58;100026.75;618209;230;23985;-77
2021/06/02 11:13:11;;;;;;;3.90;2.03;;;;;;;27.92;40.93;100021.02;631977;225;23990;-76
2021/06/02 11:15:44;;;;;;;2.27;1.70;;;;;;;27.69;37.66;100023.09;633299;225;24928;-77
2021/06/02 11:18:20;;;;;;;3.60;1.50;;;;;;;28.13;38.25;100021.31;635725;225;23874;-77
2021/06/02 11:20:47;;;;;;;4.03;1.43;;;;;;;28.08;39.99;100018.11;636807;221;24887;-77
2021/06/02 11:23:15;;;;;;;1.73;1.63;;;;;;;27.84;36.30;100018.85;624661;229;23927;-77
2021/06/02 11:25:44;;;;;;;4.13;2.00;;;;;;;28.12;37.80;100021.05;617359;230;24894;-77
2021/06/02 11:28:30;;;;;;;2.60;1.40;;;;;;;28.45;37.02;100017.64;635614;225;23865;-77
2021/06/02 11:31:20;;;;;;;1.70;1.50;;;;;;;28.20;36.72;100012.50;619248;229;23893;-76
2021/06/02 11:33:48;;;;;;;5.97;1.70;;;;;;;28.86;33.73;100005.02;633101;225;23869;-77
2021/06/02 11:36:16;;;;;;;5.13;2.07;;;;;;;29.15;34.83;100003.90;637335;225;23961;-77
2021/06/02 11:38:44;;;;;;;4.60;1.70;;;;;;;29.89;35.26;100004.38;626226;225;32915;-77
2021/06/02 11:41:12;;;;;;;5.67;1.53;;;;;;;30.03;36.11;100004.01;633196;225;22723;-77
2021/06/02 11:43:40;;;;;;;4.57;1.90;;;;;;;29.63;36.04;100009.61;634320;224;23867;-77
2021/06/02 11:46:08;;;;;;;2.77;2.20;;;;;;;29.29;35.97;100011.62;634058;224;23946;-77
2021/06/02 11:48:37;;;;;;;4.20;2.10;;;;;;;29.91;38.14;100010.25;614470;229;33001;-76
2021/06/02 11:51:08;;;;;;;3.83;1.90;;;;;;;28.97;36.78;100014.10;615680;229;22776;-77
2021/06/02 11:53:38;;;;;;;2.17;1.72;;;;;;;28.92;37.08;100013.33;609181;230;32902;-75